createdAt,value
2022-08-27T00:05:09.620Z,98127.94
2022-08-27T00:10:20.143Z,98128.34
2022-08-27T00:15:28.272Z,98125.25
2022-08-27T00:20:32.947Z,98121.28
2022-08-27T00:25:40.545Z,98113.94
2022-08-27T00:30:45.064Z,98109.53
2022-08-27T00:35:50.109Z,98111.59
2022-08-27T00:40:57.409Z,98105.72
2022-08-27T00:46:07.747Z,98104.44
2022-08-27T00:51:13.066Z,98112.16
2022-08-27T00:56:25.218Z,98108.78
2022-08-27T01:01:32.590Z,98112.31
2022-08-27T01:06:40.684Z,98114.44
2022-08-27T01:11:50.161Z,98102.31
2022-08-27T01:16:57.422Z,98109.44
2022-08-27T01:22:09.358Z,98105.44
2022-08-27T01:27:34.353Z,98120.50
2022-08-27T01:32:41.154Z,98119.47
2022-08-27T01:37:49.548Z,98125.53
2022-08-27T01:43:00.704Z,98124.09
2022-08-27T01:48:07.781Z,98122.00
2022-08-27T01:53:15.277Z,98127.53
2022-08-27T01:58:26.021Z,98125.63
2022-08-27T02:03:32.342Z,98123.34
2022-08-27T02:08:38.554Z,98119.56
2022-08-27T02:13:46.161Z,98119.56
2022-08-27T02:18:52.132Z,98125.63
2022-08-27T02:23:56.880Z,98134.44
2022-08-27T02:29:04.821Z,98143.00
2022-08-27T02:34:09.865Z,98144.69
2022-08-27T02:39:14.802Z,98144.44
2022-08-27T02:44:21.987Z,98140.66
2022-08-27T02:49:27.147Z,98133.78
2022-08-27T02:54:32.472Z,98146.34
2022-08-27T02:59:40.173Z,98149.91
2022-08-27T03:04:44.969Z,98144.44
2022-08-27T03:09:49.586Z,98138.38
2022-08-27T03:14:57.851Z,98139.00
2022-08-27T03:20:03.918Z,98135.06
2022-08-27T03:25:09.972Z,98132.91
2022-08-27T03:30:20.815Z,98129.13
2022-08-27T03:35:25.819Z,98135.44
2022-08-27T03:40:30.544Z,98131.28
2022-08-27T03:45:49.871Z,98136.13
2022-08-27T03:51:08.190Z,98138.00
2022-08-27T03:56:13.225Z,98133.38
2022-08-27T04:01:20.804Z,98133.38
2022-08-27T04:06:25.692Z,98133.81
2022-08-27T04:11:30.849Z,98134.09
2022-08-27T04:16:41.187Z,98108.78
2022-08-27T04:21:45.681Z,98120.19
2022-08-27T04:26:50.356Z,98126.50
2022-08-27T04:31:58.314Z,98125.88
2022-08-27T04:37:03.098Z,98120.28
2022-08-27T04:42:08.340Z,98131.84
2022-08-27T04:47:16.645Z,98138.53
2022-08-27T04:52:21.399Z,98134.75
2022-08-27T04:57:25.940Z,98132.50
2022-08-27T05:02:33.343Z,98131.63
2022-08-27T05:07:37.932Z,98144.44
2022-08-27T05:12:44.911Z,98137.72
2022-08-27T05:17:53.784Z,98145.91
2022-08-27T05:23:03.269Z,98158.69
2022-08-27T05:28:07.917Z,98160.19
2022-08-27T05:33:17.911Z,98164.38
2022-08-27T05:38:27.498Z,98158.94
2022-08-27T05:43:32.335Z,98161.03
2022-08-27T05:48:40.009Z,98159.56
2022-08-27T05:53:45.285Z,98153.50
2022-08-27T05:59:03.680Z,98160.44
2022-08-27T06:04:12.210Z,98164.81
2022-08-27T06:09:25.253Z,98172.97
2022-08-27T06:14:30.637Z,98163.97
2022-08-27T06:19:37.828Z,98179.94
2022-08-27T06:24:43.557Z,98176.16
2022-08-27T06:29:48.855Z,98184.75
2022-08-27T06:34:56.122Z,98185.81
2022-08-27T06:40:00.693Z,98200.50
2022-08-27T06:45:06.080Z,98199.44
2022-08-27T06:50:16.457Z,98198.78
2022-08-27T06:55:24.495Z,98198.38
2022-08-27T07:00:32.547Z,98203.63
2022-08-27T07:05:42.318Z,98218.09
2022-08-27T07:10:46.989Z,98216.00
2022-08-27T07:15:51.701Z,98225.63
2022-08-27T07:20:59.618Z,98226.03
2022-08-27T07:26:05.227Z,98238.19
2022-08-27T07:31:11.108Z,98241.53
2022-08-27T07:36:20.333Z,98258.50
2022-08-27T07:41:30.575Z,98265.84
2022-08-27T07:46:39.728Z,98258.72
2022-08-27T07:51:48.789Z,98260.41
2022-08-27T07:56:55.379Z,98268.97
2022-08-27T08:02:00.861Z,98265.84
2022-08-27T08:07:08.084Z,98273.59
2022-08-27T08:12:12.727Z,98277.53
2022-08-27T08:17:17.780Z,98279.03
2022-08-27T08:22:25.061Z,98292.44
2022-08-27T08:27:29.797Z,98287.19
2022-08-27T08:32:34.410Z,98293.84
2022-08-27T08:37:42.462Z,98292.56
2022-08-27T08:42:54.734Z,98289.19
2022-08-27T08:48:05.422Z,98287.91
2022-08-27T08:53:30.343Z,98287.41
2022-08-27T08:58:44.273Z,98285.31
2022-08-27T09:03:55.827Z,98288.47
2022-08-27T09:09:12.206Z,98280.09
2022-08-27T09:15:12.453Z,98277.31
2022-08-27T09:22:07.494Z,98276.03
2022-08-27T09:34:03.001Z,98259.56
2022-08-27T09:58:52.533Z,98238.94
2022-08-27T10:23:47.600Z,98235.38
2022-08-27T10:29:13.673Z,98228.38
2022-08-27T10:34:32.624Z,98236.91
2022-08-27T10:39:55.319Z,98228.31
2022-08-27T10:45:31.007Z,98220.88
2022-08-27T10:50:42.901Z,98220.44
2022-08-27T10:55:54.216Z,98226.28
2022-08-27T11:01:06.370Z,98237.00
2022-08-27T11:06:18.697Z,98243.00
2022-08-27T11:12:10.418Z,98242.53
2022-08-27T11:17:01.891Z,98226.50
2022-08-27T11:22:17.029Z,98226.66
2022-08-27T11:27:36.262Z,98222.69
2022-08-27T11:32:50.109Z,98239.88
2022-08-27T11:38:15.033Z,98227.81
2022-08-27T11:43:25.556Z,98235.38
2022-08-27T11:48:32.991Z,98235.25
2022-08-27T11:53:52.051Z,98250.34
2022-08-27T11:59:11.273Z,98255.56
2022-08-27T12:04:26.905Z,98248.66
2022-08-27T12:09:34.917Z,98248.00
2022-08-27T12:14:48.973Z,98238.69
2022-08-27T12:20:10.101Z,98243.03
2022-08-27T12:25:23.789Z,98234.41
2022-08-27T12:30:36.933Z,98228.94
2022-08-27T12:35:47.380Z,98242.47
2022-08-27T12:40:54.410Z,98235.78
2022-08-27T12:46:31.920Z,98220.13
2022-08-27T12:51:39.134Z,98212.00
2022-08-27T12:56:57.856Z,98206.59
2022-08-27T13:02:18.340Z,98201.66
2022-08-27T13:07:37.904Z,98196.56
2022-08-27T13:12:43.441Z,98185.88
2022-08-27T13:17:52.818Z,98182.56
2022-08-27T13:22:58.266Z,98186.69
2022-08-27T13:28:08.469Z,98190.19
2022-08-27T13:33:29.153Z,98180.13
2022-08-27T13:38:36.766Z,98186.66
2022-08-27T13:43:44.101Z,98197.28
2022-08-27T13:48:53.613Z,98166.84
2022-08-27T13:54:11.141Z,98168.75
2022-08-27T13:59:18.312Z,98149.09
2022-08-27T14:04:28.689Z,98138.84
2022-08-27T14:09:33.480Z,98145.28
2022-08-27T14:14:40.875Z,98144.22
2022-08-27T14:19:49.677Z,98131.84
2022-08-27T14:24:54.879Z,98135.25
2022-08-27T14:29:59.543Z,98141.81
2022-08-27T14:35:07.516Z,98134.84
2022-08-27T14:40:14.739Z,98130.50
2022-08-27T14:45:21.027Z,98130.00
2022-08-27T14:50:28.962Z,98134.75
2022-08-27T14:55:34.679Z,98141.69
2022-08-27T15:00:40.027Z,98149.56
2022-08-27T15:05:47.783Z,98145.72
2022-08-27T15:10:58.099Z,98136.22
2022-08-27T15:16:05.743Z,98145.38
2022-08-27T15:21:13.283Z,98151.50
2022-08-27T15:26:18.076Z,98155.28
2022-08-27T15:31:23.414Z,98150.97
2022-08-27T15:36:30.718Z,98150.50
2022-08-27T15:41:50.805Z,98154.78
2022-08-27T15:47:01.795Z,98165.63
2022-08-27T15:52:10.415Z,98166.94
2022-08-27T15:57:20.845Z,98169.31
2022-08-27T16:02:27.244Z,98164.22
2022-08-27T16:07:34.665Z,98159.59
2022-08-27T16:12:39.201Z,98158.28
2022-08-27T16:17:44.887Z,98152.00
2022-08-27T16:22:52.338Z,98148.94
2022-08-27T16:28:04.747Z,98144.84
2022-08-27T16:33:14.683Z,98143.69
2022-08-27T16:38:22.103Z,98148.41
2022-08-27T16:43:29.293Z,98150.59
2022-08-27T16:48:46.494Z,98148.25
2022-08-27T16:53:54.273Z,98150.28
2022-08-27T16:58:59.226Z,98158.47
2022-08-27T17:04:15.386Z,98162.66
2022-08-27T17:09:24.007Z,98170.28
2022-08-27T17:14:29.418Z,98163.25
2022-08-27T17:19:35.047Z,98172.78
2022-08-27T17:24:43.034Z,98182.03
2022-08-27T17:29:47.618Z,98199.63
2022-08-27T17:34:52.186Z,98193.78
2022-08-27T17:40:00.242Z,98200.50
2022-08-27T17:45:06.873Z,98203.41
2022-08-27T17:50:12.692Z,98200.63
2022-08-27T17:55:20.377Z,98219.59
2022-08-27T18:00:25.183Z,98227.03
2022-08-27T18:05:30.382Z,98234.31
2022-08-27T18:10:38.879Z,98249.81
2022-08-27T18:15:45.641Z,98259.91
2022-08-27T18:20:50.291Z,98267.53
2022-08-27T18:25:59.917Z,98275.03
2022-08-27T18:31:06.519Z,98283.47
2022-08-27T18:36:12.147Z,98283.53
2022-08-27T18:41:20.379Z,98289.25
2022-08-27T18:46:25.528Z,98299.34
2022-08-27T18:51:31.411Z,98299.97
2022-08-27T18:56:45.874Z,98299.19
2022-08-27T19:01:50.608Z,98304.63
2022-08-27T19:06:56.595Z,98311.78
2022-08-27T19:12:04.494Z,98313.91
2022-08-27T19:17:10.600Z,98315.63
2022-08-27T19:22:15.230Z,98315.28
2022-08-27T19:27:26.561Z,98316.78
2022-08-27T19:32:31.187Z,98311.56
2022-08-27T19:37:45.295Z,98323.34
2022-08-27T19:42:59.551Z,98321.94
2022-08-27T19:48:04.166Z,98322.09
2022-08-27T19:53:10.832Z,98329.66
2022-08-27T19:58:22.252Z,98328.47
2022-08-27T20:03:26.775Z,98341.91
2022-08-27T20:08:31.774Z,98321.75
2022-08-27T20:13:40.756Z,98326.38
2022-08-27T20:18:58.394Z,98340.22
2022-08-27T20:24:06.180Z,98341.09
2022-08-27T20:29:14.938Z,98344.63
2022-08-27T20:34:39.670Z,98351.19
2022-08-27T20:39:44.588Z,98354.16
2022-08-27T20:44:52.507Z,98355.19
2022-08-27T20:49:57.547Z,98355.22
2022-08-27T20:55:02.252Z,98351.25
2022-08-27T21:00:24.015Z,98358.63
2022-08-27T21:05:28.771Z,98355.06
2022-08-27T21:10:33.800Z,98358.41
2022-08-27T21:15:41.228Z,98358.66
2022-08-27T21:20:45.990Z,98355.53
2022-08-27T21:25:51.482Z,98354.47
2022-08-27T21:30:58.895Z,98349.66
2022-08-27T21:36:04.122Z,98349.03
2022-08-27T21:41:09.139Z,98345.44
2022-08-27T21:46:16.456Z,98349.25
2022-08-27T21:51:24.675Z,98343.81
2022-08-27T21:56:30.082Z,98347.34
2022-08-27T22:01:37.746Z,98344.84
2022-08-27T22:06:42.800Z,98354.09
2022-08-27T22:11:47.496Z,98348.00
2022-08-27T22:16:54.838Z,98344.63
2022-08-27T22:21:59.719Z,98335.84
2022-08-27T22:27:04.687Z,98335.66
2022-08-27T22:32:11.974Z,98331.88
2022-08-27T22:37:16.931Z,98338.38
2022-08-27T22:42:21.783Z,98344.25
2022-08-27T22:47:29.223Z,98327.03
2022-08-27T22:52:34.407Z,98334.19
2022-08-27T22:57:39.064Z,98341.31
2022-08-27T23:02:46.230Z,98345.31
2022-08-27T23:07:50.965Z,98354.78
2022-08-27T23:12:56.568Z,98355.19
2022-08-27T23:18:04.257Z,98349.31
2022-08-27T23:23:10.217Z,98347.88
2022-08-27T23:28:16.862Z,98353.50
2022-08-27T23:33:24.810Z,98360.47
2022-08-27T23:38:30.529Z,98365.28
2022-08-27T23:43:35.148Z,98364.00
2022-08-27T23:48:42.273Z,98367.78
2022-08-27T23:53:46.811Z,98368.66
2022-08-27T23:58:51.721Z,98363.84
